Time;durP1;ratioP1;P1;durP2;ratioP2;P2;SDS_P1;SDS_P2;PMS_P1;PMS_P2;Temp;Humidity;BMP_temperature;BMP_pressure;BME280_temperature;BME280_humidity;BME280_pressure;Samples;Min_cycle;Max_cycle;Signal;HPM_P1;HPM_P2
2022/07/03 00:01:55;;;;;;;4.32;2.00;;;;;;;;;;5102636;28;21201;-72
2022/07/03 00:04:21;;;;;;;2.95;1.30;;;;;;;;;;5103369;28;20572;-71
2022/07/03 00:06:47;;;;;;;2.10;1.55;;;;;;;;;;5099094;28;20126;-70
2022/07/03 00:09:14;;;;;;;3.17;1.73;;;;;;;;;;5099581;28;20043;-71
2022/07/03 00:11:40;;;;;;;2.20;1.40;;;;;;;;;;5097146;28;20093;-71
2022/07/03 00:14:06;;;;;;;5.13;1.38;;;;;;;;;;5101569;28;20050;-72
2022/07/03 00:16:32;;;;;;;2.70;1.40;;;;;;;;;;5101921;28;20507;-71
2022/07/03 00:18:58;;;;;;;3.78;2.45;;;;;;;;;;5100898;28;20039;-70
2022/07/03 00:21:28;;;;;;;3.65;2.47;;;;;;;;;;5107785;28;20306;-70
2022/07/03 00:24:00;;;;;;;3.92;2.50;;;;;;;;;;5105304;28;20039;-71
2022/07/03 00:26:30;;;;;;;3.90;2.58;;;;;;;;;;5104916;28;20075;-70
2022/07/03 00:28:58;;;;;;;6.28;3.13;;;;;;;;;;5106696;28;20488;-70
2022/07/03 00:31:24;;;;;;;5.05;3.17;;;;;;;;;;5115444;27;20067;-71
2022/07/03 00:33:52;;;;;;;6.00;3.08;;;;;;;;;;5097346;28;20035;-70
2022/07/03 00:36:18;;;;;;;5.22;3.42;;;;;;;;;;5109053;28;20096;-70
2022/07/03 00:38:45;;;;;;;3.53;3.05;;;;;;;;;;5103664;28;20513;-71
2022/07/03 00:41:24;;;;;;;4.30;3.38;;;;;;;;;;5104663;28;20421;-71
2022/07/03 00:43:51;;;;;;;4.57;3.50;;;;;;;;;;5094397;28;20051;-71
2022/07/03 00:46:17;;;;;;;11.32;3.60;;;;;;;;;;5098866;28;20039;-71
2022/07/03 00:48:46;;;;;;;5.22;3.72;;;;;;;;;;5105339;28;20031;-71
2022/07/03 00:51:15;;;;;;;3.95;3.50;;;;;;;;;;5103734;28;20516;-70
2022/07/03 00:53:42;;;;;;;8.23;3.67;;;;;;;;;;5106324;28;20461;-71
2022/07/03 00:56:11;;;;;;;6.05;4.15;;;;;;;;;;5100976;28;20105;-70
2022/07/03 00:58:38;;;;;;;5.60;4.38;;;;;;;;;;5100138;28;20036;-70
2022/07/03 01:01:04;;;;;;;7.15;4.05;;;;;;;;;;5107665;28;20464;-71
2022/07/03 01:03:33;;;;;;;6.13;5.00;;;;;;;;;;5108371;28;20262;-71
2022/07/03 01:06:02;;;;;;;6.53;4.57;;;;;;;;;;5111481;28;20035;-71
2022/07/03 01:08:28;;;;;;;6.05;4.97;;;;;;;;;;5111450;28;20063;-71
2022/07/03 01:11:12;;;;;;;6.32;4.80;;;;;;;;;;5100427;28;20040;-70
2022/07/03 01:13:54;;;;;;;6.10;4.80;;;;;;;;;;5108792;28;20052;-70
2022/07/03 01:16:47;;;;;;;5.73;5.17;;;;;;;;;;5110891;27;20063;-70
2022/07/03 01:19:22;;;;;;;12.48;5.20;;;;;;;;;;5107942;28;20458;-70
2022/07/03 01:21:51;;;;;;;7.60;5.07;;;;;;;;;;5110959;28;20039;-70
2022/07/03 01:24:36;;;;;;;7.43;4.85;;;;;;;;;;5104514;28;20146;-70
2022/07/03 01:27:05;;;;;;;8.40;5.38;;;;;;;;;;5109543;28;20039;-71
2022/07/03 01:29:46;;;;;;;7.88;5.25;;;;;;;;;;5108105;28;20031;-71
2022/07/03 01:32:15;;;;;;;8.25;5.72;;;;;;;;;;5111015;28;20038;-70
2022/07/03 01:34:44;;;;;;;10.05;5.65;;;;;;;;;;5102600;28;20105;-70
2022/07/03 01:37:10;;;;;;;8.20;5.45;;;;;;;;;;5103445;28;20120;-71
2022/07/03 01:39:37;;;;;;;5.00;4.50;;;;;;;;;;5106647;28;20063;-70
2022/07/03 01:42:03;;;;;;;9.43;5.28;;;;;;;;;;5109902;28;20048;-69
2022/07/03 01:44:30;;;;;;;6.43;4.90;;;;;;;;;;5110915;27;20076;-69
2022/07/03 01:46:58;;;;;;;6.35;4.82;;;;;;;;;;5109525;27;20039;-70
2022/07/03 01:49:27;;;;;;;7.78;4.78;;;;;;;;;;5104206;28;20521;-70
2022/07/03 01:51:55;;;;;;;8.57;5.32;;;;;;;;;;5098615;28;20042;-70
2022/07/03 01:54:25;;;;;;;5.47;4.75;;;;;;;;;;5097939;28;20039;-71
2022/07/03 01:56:51;;;;;;;6.57;4.55;;;;;;;;;;5108071;28;20382;-70
2022/07/03 01:59:17;;;;;;;5.57;4.72;;;;;;;;;;5098479;27;20046;-70
2022/07/03 02:01:43;;;;;;;7.53;4.85;;;;;;;;;;5102118;28;20119;-70
2022/07/03 02:04:23;;;;;;;7.15;4.43;;;;;;;;;;5109318;28;20035;-70
2022/07/03 02:06:59;;;;;;;6.10;5.13;;;;;;;;;;5106764;28;20043;-71
2022/07/03 02:09:27;;;;;;;7.63;4.85;;;;;;;;;;5107958;28;20035;-71
2022/07/03 02:11:54;;;;;;;9.00;4.68;;;;;;;;;;5109396;28;20385;-70
2022/07/03 02:14:24;;;;;;;8.10;4.50;;;;;;;;;;5114528;27;20392;-71
2022/07/03 02:17:04;;;;;;;7.90;4.22;;;;;;;;;;5100793;28;20035;-70
2022/07/03 02:19:45;;;;;;;4.40;3.92;;;;;;;;;;5108136;28;20075;-70
2022/07/03 02:22:13;;;;;;;5.40;4.55;;;;;;;;;;5105061;28;20571;-71
2022/07/03 02:24:48;;;;;;;5.90;3.90;;;;;;;;;;5099020;28;20036;-71
2022/07/03 02:27:19;;;;;;;5.55;4.28;;;;;;;;;;5102191;28;20442;-70
2022/07/03 02:29:59;;;;;;;6.63;4.15;;;;;;;;;;5107172;28;20131;-70
2022/07/03 02:32:26;;;;;;;6.65;4.65;;;;;;;;;;5107841;28;20111;-70
2022/07/03 02:35:11;;;;;;;6.95;4.40;;;;;;;;;;5107875;28;20039;-70
2022/07/03 02:37:48;;;;;;;8.60;4.95;;;;;;;;;;5101391;28;20047;-70
2022/07/03 02:40:25;;;;;;;6.47;4.32;;;;;;;;;;5106037;28;20070;-70
2022/07/03 02:42:51;;;;;;;8.23;4.40;;;;;;;;;;5109083;28;20039;-69
2022/07/03 02:45:18;;;;;;;6.72;4.78;;;;;;;;;;5109346;27;20127;-70
2022/07/03 02:47:48;;;;;;;5.82;4.32;;;;;;;;;;5102131;28;20044;-71
2022/07/03 02:50:17;;;;;;;6.10;4.25;;;;;;;;;;5105397;28;20115;-70
2022/07/03 02:53:04;;;;;;;7.35;5.15;;;;;;;;;;5108296;28;20568;-71
2022/07/03 02:55:44;;;;;;;5.57;4.43;;;;;;;;;;5082208;28;20444;-71
2022/07/03 02:58:28;;;;;;;6.47;4.78;;;;;;;;;;5109266;28;20043;-70
2022/07/03 03:01:07;;;;;;;7.93;5.15;;;;;;;;;;5104951;27;20039;-70
2022/07/03 03:03:35;;;;;;;6.95;5.63;;;;;;;;;;5101665;28;20042;-70
2022/07/03 03:06:07;;;;;;;5.60;4.93;;;;;;;;;;5106343;28;20035;-70
2022/07/03 03:08:36;;;;;;;8.77;5.90;;;;;;;;;;5110266;28;20122;-70
2022/07/03 03:11:06;;;;;;;5.78;5.03;;;;;;;;;;5097844;28;20134;-70
2022/07/03 03:13:32;;;;;;;7.38;5.18;;;;;;;;;;5105630;28;20058;-70
2022/07/03 03:16:06;;;;;;;6.43;5.43;;;;;;;;;;5100905;27;20097;-70
2022/07/03 03:18:34;;;;;;;5.93;4.65;;;;;;;;;;5105198;28;20799;-70
2022/07/03 03:21:00;;;;;;;5.72;4.55;;;;;;;;;;5109719;28;20428;-70
2022/07/03 03:23:39;;;;;;;6.03;5.20;;;;;;;;;;5106712;28;20124;-70
2022/07/03 03:26:05;;;;;;;5.47;4.32;;;;;;;;;;5109407;28;20039;-70
2022/07/03 03:28:31;;;;;;;5.82;4.30;;;;;;;;;;5109082;28;20036;-70
2022/07/03 03:30:57;;;;;;;6.18;5.22;;;;;;;;;;5106324;27;20035;-70
2022/07/03 03:33:23;;;;;;;9.15;5.60;;;;;;;;;;5103116;28;20051;-70
2022/07/03 03:35:50;;;;;;;5.60;4.05;;;;;;;;;;5108823;28;20447;-70
2022/07/03 03:38:16;;;;;;;6.30;4.40;;;;;;;;;;5108347;28;20040;-70
2022/07/03 03:40:44;;;;;;;7.40;4.78;;;;;;;;;;5108337;28;20048;-70
2022/07/03 03:43:10;;;;;;;7.25;4.35;;;;;;;;;;5101018;28;20043;-70
2022/07/03 03:45:36;;;;;;;8.45;5.28;;;;;;;;;;5108467;27;20051;-71
2022/07/03 03:48:03;;;;;;;6.70;4.15;;;;;;;;;;5103438;28;20067;-70
2022/07/03 03:50:29;;;;;;;5.88;4.47;;;;;;;;;;5109201;28;20067;-70
2022/07/03 03:52:55;;;;;;;6.90;4.18;;;;;;;;;;5108106;28;20389;-70
2022/07/03 03:55:21;;;;;;;5.80;4.32;;;;;;;;;;5109527;28;20127;-70
2022/07/03 03:57:48;;;;;;;8.82;4.68;;;;;;;;;;5088646;28;20034;-70
2022/07/03 04:00:14;;;;;;;5.60;5.00;;;;;;;;;;5108762;28;20451;-71
2022/07/03 04:02:40;;;;;;;6.05;4.35;;;;;;;;;;5104784;28;20570;-70
2022/07/03 04:05:06;;;;;;;5.47;4.40;;;;;;;;;;5108092;28;20397;-70
2022/07/03 04:07:33;;;;;;;8.20;5.45;;;;;;;;;;5103869;28;20031;-70
2022/07/03 04:09:59;;;;;;;8.25;5.40;;;;;;;;;;5107011;28;20122;-70
2022/07/03 04:12:25;;;;;;;7.80;5.78;;;;;;;;;;5106845;28;20044;-70
2022/07/03 04:14:52;;;;;;;9.77;6.32;;;;;;;;;;5105176;28;20243;-70
2022/07/03 04:17:20;;;;;;;7.13;5.38;;;;;;;;;;5098330;28;20476;-70
2022/07/03 04:19:46;;;;;;;7.38;5.70;;;;;;;;;;5103903;28;20161;-70
2022/07/03 04:22:12;;;;;;;8.00;5.63;;;;;;;;;;5106503;28;20040;-70
2022/07/03 04:24:38;;;;;;;7.53;5.93;;;;;;;;;;5101644;28;20040;-70
2022/07/03 04:27:05;;;;;;;9.90;5.95;;;;;;;;;;5108144;28;20035;-70
2022/07/03 04:29:31;;;;;;;9.32;6.45;;;;;;;;;;5091770;28;20398;-70
2022/07/03 04:31:57;;;;;;;7.55;5.53;;;;;;;;;;5106005;28;20050;-71
2022/07/03 04:34:23;;;;;;;7.22;5.97;;;;;;;;;;5105930;28;20128;-71
2022/07/03 04:36:49;;;;;;;7.40;5.45;;;;;;;;;;5111636;28;20126;-71
2022/07/03 04:39:16;;;;;;;7.35;5.45;;;;;;;;;;5111006;28;20060;-71
2022/07/03 04:41:42;;;;;;;6.50;5.57;;;;;;;;;;5112622;28;20492;-71
2022/07/03 04:44:08;;;;;;;7.22;6.05;;;;;;;;;;5104691;28;20039;-70
2022/07/03 04:46:35;;;;;;;9.07;5.75;;;;;;;;;;5116266;27;20186;-70
2022/07/03 04:49:01;;;;;;;8.88;5.28;;;;;;;;;;5105241;28;20048;-70
2022/07/03 04:51:27;;;;;;;6.20;4.15;;;;;;;;;;5112373;28;20035;-71
2022/07/03 04:53:54;;;;;;;6.03;5.07;;;;;;;;;;5110239;28;20555;-71
2022/07/03 04:56:20;;;;;;;7.32;4.88;;;;;;;;;;5111175;28;20642;-71
2022/07/03 04:58:46;;;;;;;11.00;5.35;;;;;;;;;;5105468;28;20058;-70
2022/07/03 05:01:12;;;;;;;5.60;5.07;;;;;;;;;;5108199;27;20035;-71
2022/07/03 05:03:38;;;;;;;6.70;5.47;;;;;;;;;;5106192;28;20042;-71
2022/07/03 05:06:04;;;;;;;10.82;4.75;;;;;;;;;;5112077;28;20036;-71
2022/07/03 05:08:30;;;;;;;8.40;4.55;;;;;;;;;;5108183;28;20993;-70
2022/07/03 05:10:57;;;;;;;9.07;5.38;;;;;;;;;;5107868;28;20051;-70
2022/07/03 05:13:23;;;;;;;7.05;4.55;;;;;;;;;;5108386;28;20104;-71
2022/07/03 05:15:49;;;;;;;6.40;5.45;;;;;;;;;;5110617;28;20076;-71
2022/07/03 05:18:15;;;;;;;7.38;5.13;;;;;;;;;;5110958;27;20393;-70
2022/07/03 05:20:41;;;;;;;8.18;5.20;;;;;;;;;;5107681;28;20059;-70
2022/07/03 05:23:07;;;;;;;7.53;5.30;;;;;;;;;;5110908;28;20382;-71
2022/07/03 05:25:33;;;;;;;6.72;4.32;;;;;;;;;;5111588;28;20039;-70
2022/07/03 05:28:01;;;;;;;10.85;6.03;;;;;;;;;;5109948;28;20035;-70
2022/07/03 05:30:27;;;;;;;6.50;4.30;;;;;;;;;;5109548;28;20023;-71
2022/07/03 05:32:54;;;;;;;5.60;4.78;;;;;;;;;;5107929;28;20370;-71
2022/07/03 05:35:20;;;;;;;4.55;3.78;;;;;;;;;;5102855;28;20044;-71
2022/07/03 05:37:47;;;;;;;4.72;3.90;;;;;;;;;;5105697;28;20031;-71
2022/07/03 05:40:13;;;;;;;4.40;3.72;;;;;;;;;;5107231;28;20111;-70
2022/07/03 05:42:39;;;;;;;4.45;2.95;;;;;;;;;;5106801;28;20039;-71
2022/07/03 05:45:06;;;;;;;4.85;3.42;;;;;;;;;;5107124;28;20045;-70
2022/07/03 05:47:32;;;;;;;4.57;3.38;;;;;;;;;;5106227;28;20488;-71
2022/07/03 05:49:59;;;;;;;7.40;3.58;;;;;;;;;;5100326;27;20040;-71
2022/07/03 05:52:25;;;;;;;4.35;3.80;;;;;;;;;;5103138;28;20044;-71
2022/07/03 05:54:51;;;;;;;8.27;3.70;;;;;;;;;;5104245;28;20035;-71
2022/07/03 05:57:17;;;;;;;5.60;4.13;;;;;;;;;;5102951;28;20423;-70
2022/07/03 05:59:43;;;;;;;7.78;3.90;;;;;;;;;;5109427;28;20035;-70
2022/07/03 06:02:09;;;;;;;6.32;3.70;;;;;;;;;;5107987;28;20031;-71
2022/07/03 06:04:35;;;;;;;6.10;4.05;;;;;;;;;;5105500;27;21858;-71
2022/07/03 06:07:01;;;;;;;9.50;3.85;;;;;;;;;;5110148;28;20050;-71
2022/07/03 06:09:28;;;;;;;5.18;3.92;;;;;;;;;;5109173;28;20037;-71
2022/07/03 06:11:54;;;;;;;4.53;3.22;;;;;;;;;;5108574;28;20034;-70
2022/07/03 06:14:20;;;;;;;6.65;4.57;;;;;;;;;;5100884;28;20128;-71
2022/07/03 06:16:46;;;;;;;5.15;3.45;;;;;;;;;;5106338;28;20039;-71
2022/07/03 06:19:12;;;;;;;5.18;3.63;;;;;;;;;;5107268;28;20088;-71
2022/07/03 06:21:38;;;;;;;5.28;3.95;;;;;;;;;;5107974;28;20420;-71
2022/07/03 06:24:05;;;;;;;4.25;3.33;;;;;;;;;;5108319;28;20043;-71
2022/07/03 06:26:31;;;;;;;3.70;3.20;;;;;;;;;;5108691;28;20477;-70
2022/07/03 06:28:57;;;;;;;4.07;3.42;;;;;;;;;;5106532;28;20042;-71
2022/07/03 06:31:23;;;;;;;4.22;3.38;;;;;;;;;;5109853;28;20035;-71
2022/07/03 06:33:49;;;;;;;5.45;3.30;;;;;;;;;;5106611;27;20042;-71
2022/07/03 06:36:15;;;;;;;9.10;4.13;;;;;;;;;;5107081;28;20039;-71
2022/07/03 06:38:41;;;;;;;4.70;3.03;;;;;;;;;;5105113;28;20055;-71
2022/07/03 06:41:07;;;;;;;5.60;2.75;;;;;;;;;;5106951;28;20039;-71
2022/07/03 06:43:34;;;;;;;7.32;3.03;;;;;;;;;;5108185;28;20444;-70
2022/07/03 06:46:00;;;;;;;4.57;3.28;;;;;;;;;;5108143;28;20039;-71
2022/07/03 06:48:26;;;;;;;5.63;3.05;;;;;;;;;;5105217;27;20129;-71
2022/07/03 06:50:52;;;;;;;4.82;2.90;;;;;;;;;;5107261;28;20527;-71
2022/07/03 06:53:18;;;;;;;6.35;3.05;;;;;;;;;;5105384;28;20040;-71
2022/07/03 06:55:44;;;;;;;5.18;2.45;;;;;;;;;;5108155;28;20341;-71
2022/07/03 06:58:11;;;;;;;5.00;2.72;;;;;;;;;;5097368;28;20382;-71
2022/07/03 07:00:38;;;;;;;4.30;2.88;;;;;;;;;;5105006;28;20043;-70
2022/07/03 07:03:04;;;;;;;5.38;2.70;;;;;;;;;;5104464;27;20036;-71
2022/07/03 07:05:31;;;;;;;4.38;2.50;;;;;;;;;;5106868;28;20028;-71
2022/07/03 07:07:57;;;;;;;3.20;2.10;;;;;;;;;;5105997;28;20066;-71
2022/07/03 07:10:23;;;;;;;4.72;2.00;;;;;;;;;;5107531;28;20111;-71
2022/07/03 07:12:49;;;;;;;5.40;1.50;;;;;;;;;;5103404;28;20035;-71
2022/07/03 07:15:15;;;;;;;2.88;1.50;;;;;;;;;;5098014;28;20401;-71
2022/07/03 07:17:41;;;;;;;2.47;1.40;;;;;;;;;;5107853;27;20111;-71
2022/07/03 07:20:08;;;;;;;3.92;2.00;;;;;;;;;;5095872;28;20093;-71
2022/07/03 07:22:34;;;;;;;2.58;1.35;;;;;;;;;;5095162;28;20135;-71
2022/07/03 07:25:01;;;;;;;4.30;1.60;;;;;;;;;;5093868;28;20042;-71
2022/07/03 07:27:27;;;;;;;3.13;1.42;;;;;;;;;;5109065;28;20035;-71
2022/07/03 07:29:53;;;;;;;6.07;1.50;;;;;;;;;;5104717;28;20082;-71
2022/07/03 07:32:19;;;;;;;9.48;1.80;;;;;;;;;;5106208;27;20055;-71
2022/07/03 07:34:45;;;;;;;3.28;1.90;;;;;;;;;;5096986;28;20051;-71
2022/07/03 07:37:12;;;;;;;6.07;1.65;;;;;;;;;;5095318;28;20181;-71
2022/07/03 07:39:38;;;;;;;2.85;1.35;;;;;;;;;;5094476;28;20063;-71
2022/07/03 07:42:05;;;;;;;3.72;1.75;;;;;;;;;;5095294;28;20036;-71
2022/07/03 07:44:31;;;;;;;3.67;1.52;;;;;;;;;;5091617;28;20499;-71
2022/07/03 07:46:57;;;;;;;5.55;2.15;;;;;;;;;;5099168;27;20035;-71
2022/07/03 07:49:23;;;;;;;3.60;1.65;;;;;;;;;;5094833;28;20036;-71
2022/07/03 07:51:49;;;;;;;5.45;1.40;;;;;;;;;;5095352;28;20067;-71
2022/07/03 07:54:15;;;;;;;9.65;1.75;;;;;;;;;;5096191;28;20114;-71
2022/07/03 07:56:41;;;;;;;7.00;1.60;;;;;;;;;;5095596;28;20131;-70
2022/07/03 07:59:07;;;;;;;3.05;1.25;;;;;;;;;;5104812;28;20032;-71
2022/07/03 08:07:04;;;;;;;2.75;1.65;;;;;;;;;;5099469;28;20039;-71
2022/07/03 08:09:30;;;;;;;3.63;1.30;;;;;;;;;;5107713;28;20095;-71
2022/07/03 08:11:56;;;;;;;2.42;1.20;;;;;;;;;;5107930;28;20039;-71
2022/07/03 08:14:22;;;;;;;2.47;1.25;;;;;;;;;;5098970;28;20058;-71
2022/07/03 08:16:49;;;;;;;4.32;1.40;;;;;;;;;;5106347;28;20130;-72
2022/07/03 08:19:15;;;;;;;2.08;1.20;;;;;;;;;;5106177;28;20039;-71
2022/07/03 08:21:42;;;;;;;3.25;1.45;;;;;;;;;;5100069;28;20039;-71
2022/07/03 08:24:08;;;;;;;3.08;1.25;;;;;;;;;;5095434;28;20110;-71
2022/07/03 08:26:34;;;;;;;2.75;1.40;;;;;;;;;;5101353;28;20085;-71
2022/07/03 08:29:00;;;;;;;3.95;1.05;;;;;;;;;;5100791;28;20051;-71
2022/07/03 08:31:26;;;;;;;5.55;1.50;;;;;;;;;;5098861;28;20032;-71
2022/07/03 08:33:53;;;;;;;6.72;1.58;;;;;;;;;;5096728;28;20128;-71
2022/07/03 08:36:19;;;;;;;2.92;1.23;;;;;;;;;;5097140;28;20043;-72
2022/07/03 08:38:45;;;;;;;5.03;1.55;;;;;;;;;;5104175;28;20032;-70
2022/07/03 08:41:13;;;;;;;2.78;1.50;;;;;;;;;;5103993;28;20429;-72
2022/07/03 08:43:40;;;;;;;5.30;1.13;;;;;;;;;;5104510;28;20063;-71
2022/07/03 08:46:07;;;;;;;2.45;1.35;;;;;;;;;;5104413;28;20043;-72
2022/07/03 08:48:34;;;;;;;2.40;1.20;;;;;;;;;;5092508;28;20036;-71
2022/07/03 08:51:02;;;;;;;3.45;1.25;;;;;;;;;;5095806;28;20051;-72
2022/07/03 08:53:28;;;;;;;6.07;1.65;;;;;;;;;;5094584;28;20082;-72
2022/07/03 08:55:54;;;;;;;2.35;1.27;;;;;;;;;;5104029;28;20516;-71
2022/07/03 08:58:22;;;;;;;5.38;1.38;;;;;;;;;;5097932;28;20119;-72
2022/07/03 09:00:48;;;;;;;7.28;1.50;;;;;;;;;;5088438;28;20051;-72
2022/07/03 09:03:15;;;;;;;2.65;1.38;;;;;;;;;;5094874;28;20124;-72
2022/07/03 09:05:41;;;;;;;3.05;1.30;;;;;;;;;;5094775;28;20040;-71
2022/07/03 09:08:09;;;;;;;5.65;1.70;;;;;;;;;;5091549;28;20032;-72
2022/07/03 09:10:35;;;;;;;8.10;1.65;;;;;;;;;;5087689;28;20515;-72
2022/07/03 09:13:01;;;;;;;5.70;1.73;;;;;;;;;;5093335;28;20046;-72
2022/07/03 09:15:27;;;;;;;3.70;1.50;;;;;;;;;;5095031;28;20501;-72
2022/07/03 09:18:04;;;;;;;4.05;1.55;;;;;;;;;;5096871;28;20112;-72
2022/07/03 09:20:31;;;;;;;5.18;1.42;;;;;;;;;;5096818;28;20040;-73
2022/07/03 09:23:15;;;;;;;5.65;1.83;;;;;;;;;;5106701;28;20031;-72
2022/07/03 09:25:51;;;;;;;6.60;2.15;;;;;;;;;;5106818;28;20503;-72
2022/07/03 09:28:17;;;;;;;6.60;1.42;;;;;;;;;;5104580;28;20047;-72
2022/07/03 09:30:57;;;;;;;4.82;2.00;;;;;;;;;;5104997;28;20097;-72
2022/07/03 09:33:23;;;;;;;3.78;1.58;;;;;;;;;;5100374;27;20086;-72
2022/07/03 09:35:53;;;;;;;3.70;1.50;;;;;;;;;;5101317;28;20042;-70
2022/07/03 09:38:19;;;;;;;5.25;2.03;;;;;;;;;;5109416;28;20278;-71
2022/07/03 09:40:46;;;;;;;5.30;1.95;;;;;;;;;;5106474;27;20097;-72
2022/07/03 09:43:12;;;;;;;4.38;1.90;;;;;;;;;;5102981;28;20060;-71
2022/07/03 09:45:58;;;;;;;5.47;1.67;;;;;;;;;;5105129;28;20031;-71
2022/07/03 09:48:33;;;;;;;3.67;1.75;;;;;;;;;;5097417;28;20036;-71
2022/07/03 09:51:08;;;;;;;3.60;1.95;;;;;;;;;;5101712;28;20043;-71
2022/07/03 09:53:54;;;;;;;5.85;1.80;;;;;;;;;;5098091;28;20044;-71
2022/07/03 09:56:21;;;;;;;4.47;1.67;;;;;;;;;;5105286;28;20126;-70
2022/07/03 09:59:04;;;;;;;4.13;1.35;;;;;;;;;;5110039;27;20036;-71
2022/07/03 10:01:30;;;;;;;;;;;;;;;;;;5101313;28;20152;-70
2022/07/03 10:04:10;;;;;;;10.05;2.08;;;;;;;;;;5096242;28;19931;-71
2022/07/03 10:06:55;;;;;;;3.75;1.90;;;;;;;;;;5107887;28;20116;-71
2022/07/03 10:09:25;;;;;;;5.43;2.03;;;;;;;;;;5106319;28;20471;-71
2022/07/03 10:11:52;;;;;;;3.17;2.10;;;;;;;;;;5109576;28;20489;-71
2022/07/03 10:14:19;;;;;;;8.18;3.33;;;;;;;;;;5097662;27;20039;-71
2022/07/03 10:16:46;;;;;;;5.40;2.65;;;;;;;;;;5108320;27;20429;-71
2022/07/03 10:19:18;;;;;;;5.35;2.38;;;;;;;;;;5106193;28;20396;-71
2022/07/03 10:21:46;;;;;;;6.72;1.83;;;;;;;;;;5107969;28;20496;-71
2022/07/03 10:24:12;;;;;;;8.88;2.85;;;;;;;;;;5100737;28;20035;-71
2022/07/03 10:26:39;;;;;;;6.68;2.95;;;;;;;;;;5107475;28;20036;-70
2022/07/03 10:29:07;;;;;;;5.85;2.78;;;;;;;;;;5108688;28;20099;-71
2022/07/03 10:31:33;;;;;;;5.07;2.28;;;;;;;;;;5107863;28;20035;-71
2022/07/03 10:34:00;;;;;;;7.00;2.85;;;;;;;;;;5105069;28;20148;-71
2022/07/03 10:36:26;;;;;;;3.25;1.98;;;;;;;;;;5103648;28;20035;-70
2022/07/03 10:38:55;;;;;;;4.22;1.95;;;;;;;;;;5095419;28;20232;-71
2022/07/03 10:44:45;;;;;;;6.03;1.90;;;;;;;;;;5038702;28;20056;-70
2022/07/03 10:47:35;;;;;;;8.90;2.63;;;;;;;;;;5019856;28;20041;-71
2022/07/03 10:50:02;;;;;;;6.20;2.85;;;;;;;;;;5073321;28;20556;-71
2022/07/03 10:52:28;;;;;;;4.80;2.45;;;;;;;;;;5108875;28;20141;-71
2022/07/03 10:54:57;;;;;;;4.88;2.25;;;;;;;;;;5106515;28;20168;-71
2022/07/03 10:57:23;;;;;;;5.05;1.70;;;;;;;;;;5108681;28;20126;-71
2022/07/03 10:59:49;;;;;;;8.40;2.25;;;;;;;;;;5105897;27;20046;-71
2022/07/03 11:02:23;;;;;;;8.52;1.95;;;;;;;;;;5106373;28;20122;-71
2022/07/03 11:05:01;;;;;;;4.75;2.17;;;;;;;;;;5104947;28;20409;-71
2022/07/03 11:07:28;;;;;;;20.10;2.78;;;;;;;;;;5108009;28;20040;-71
2022/07/03 11:10:13;;;;;;;4.22;1.98;;;;;;;;;;5103546;28;20047;-71
2022/07/03 11:13:09;;;;;;;3.10;1.60;;;;;;;;;;5100166;28;20050;-72
2022/07/03 11:15:40;;;;;;;3.83;2.10;;;;;;;;;;5097720;28;20051;-71
2022/07/03 11:18:06;;;;;;;11.55;2.05;;;;;;;;;;5106694;28;20492;-71
2022/07/03 11:20:33;;;;;;;2.30;1.45;;;;;;;;;;5106890;28;20040;-72
2022/07/03 11:23:18;;;;;;;4.20;1.73;;;;;;;;;;5097748;28;20486;-72
2022/07/03 11:25:45;;;;;;;3.33;1.10;;;;;;;;;;5096564;28;20058;-72
2022/07/03 11:28:30;;;;;;;2.15;1.30;;;;;;;;;;5101456;28;20043;-71
2022/07/03 11:31:08;;;;;;;2.17;1.35;;;;;;;;;;5102516;28;20520;-72
2022/07/03 11:33:48;;;;;;;3.75;1.75;;;;;;;;;;5102938;28;20039;-71
2022/07/03 11:36:17;;;;;;;2.83;1.50;;;;;;;;;;5097376;28;20044;-71
2022/07/03 11:38:45;;;;;;;3.05;1.52;;;;;;;;;;5102975;28;20396;-71
2022/07/03 11:41:12;;;;;;;2.42;1.67;;;;;;;;;;5106770;28;20047;-71
2022/07/03 11:43:46;;;;;;;2.65;1.45;;;;;;;;;;5102778;27;20288;-71
2022/07/03 11:46:17;;;;;;;2.40;1.67;;;;;;;;;;5106726;28;20622;-71
2022/07/03 11:48:43;;;;;;;6.40;1.75;;;;;;;;;;5093170;28;20054;-70
2022/07/03 11:51:09;;;;;;;4.00;1.50;;;;;;;;;;5107261;28;20035;-71
2022/07/03 11:53:36;;;;;;;2.03;1.63;;;;;;;;;;5105571;28;20051;-71
2022/07/03 11:56:04;;;;;;;3.58;1.77;;;;;;;;;;5106080;28;20059;-71
2022/07/03 11:58:43;;;;;;;1.55;1.15;;;;;;;;;;5112377;27;20065;-71
2022/07/03 12:01:10;;;;;;;3.58;1.50;;;;;;;;;;5093449;28;20036;-71
2022/07/03 12:03:36;;;;;;;3.60;1.40;;;;;;;;;;5105601;28;20072;-71
2022/07/03 12:06:03;;;;;;;2.00;1.23;;;;;;;;;;5100198;28;20113;-71
2022/07/03 12:08:31;;;;;;;6.10;1.65;;;;;;;;;;5105045;28;20051;-71
2022/07/03 12:10:59;;;;;;;4.25;1.55;;;;;;;;;;5103211;28;20047;-71
2022/07/03 12:13:25;;;;;;;4.82;1.60;;;;;;;;;;5106862;28;20047;-72
2022/07/03 12:15:52;;;;;;;5.55;1.40;;;;;;;;;;5103843;28;20525;-71
2022/07/03 12:18:18;;;;;;;2.50;1.08;;;;;;;;;;5093282;28;20538;-72
2022/07/03 12:20:44;;;;;;;4.45;1.42;;;;;;;;;;5095250;28;20129;-71
2022/07/03 12:23:11;;;;;;;2.08;1.38;;;;;;;;;;5097422;28;20031;-72
2022/07/03 12:25:40;;;;;;;2.70;1.30;;;;;;;;;;5107947;28;20534;-71
2022/07/03 12:28:08;;;;;;;2.75;1.55;;;;;;;;;;5104118;28;20040;-72
2022/07/03 12:30:35;;;;;;;2.33;1.30;;;;;;;;;;5095637;28;20043;-71
2022/07/03 12:33:02;;;;;;;4.65;1.75;;;;;;;;;;5106006;28;20118;-71
2022/07/03 12:35:29;;;;;;;2.20;1.17;;;;;;;;;;5107142;28;20032;-71
2022/07/03 12:37:55;;;;;;;3.08;1.20;;;;;;;;;;5103330;28;20035;-70
2022/07/03 12:40:22;;;;;;;1.80;1.13;;;;;;;;;;5105992;28;20039;-71
2022/07/03 12:42:49;;;;;;;3.72;1.58;;;;;;;;;;5108367;28;20044;-71
2022/07/03 12:45:16;;;;;;;2.25;1.42;;;;;;;;;;5110656;27;20036;-72
2022/07/03 12:47:42;;;;;;;4.05;1.40;;;;;;;;;;5102969;28;20035;-73
2022/07/03 12:50:09;;;;;;;3.38;1.45;;;;;;;;;;5107870;28;20197;-71
2022/07/03 12:52:49;;;;;;;2.10;1.25;;;;;;;;;;5108424;28;20118;-71
2022/07/03 12:55:25;;;;;;;5.60;1.88;;;;;;;;;;5109844;28;20515;-71
2022/07/03 13:00:51;;;;;;;2.05;1.23;;;;;;;;;;5107282;28;20067;-71
2022/07/03 13:03:30;;;;;;;2.15;1.15;;;;;;;;;;5104691;28;20498;-70
2022/07/03 13:05:57;;;;;;;2.53;1.02;;;;;;;;;;5110897;28;20584;-72
2022/07/03 13:08:23;;;;;;;2.63;1.17;;;;;;;;;;5104374;28;20042;-72
2022/07/03 13:10:56;;;;;;;3.13;1.40;;;;;;;;;;5110077;28;20071;-72
2022/07/03 13:13:22;;;;;;;1.92;1.20;;;;;;;;;;5106632;28;20412;-72
2022/07/03 13:15:49;;;;;;;1.90;1.00;;;;;;;;;;5089001;28;20101;-72
2022/07/03 13:18:15;;;;;;;3.75;1.50;;;;;;;;;;5104666;28;20516;-72
2022/07/03 13:20:41;;;;;;;3.80;1.20;;;;;;;;;;5109389;28;20050;-73
2022/07/03 13:23:07;;;;;;;1.75;1.10;;;;;;;;;;5100252;28;20036;-70
2022/07/03 13:25:35;;;;;;;6.38;1.25;;;;;;;;;;5098944;28;20028;-70
2022/07/03 13:28:09;;;;;;;3.05;1.30;;;;;;;;;;5104439;28;20039;-70
2022/07/03 13:30:35;;;;;;;1.67;0.93;;;;;;;;;;5105352;28;20035;-71
2022/07/03 13:33:02;;;;;;;4.88;1.63;;;;;;;;;;5107437;28;20036;-71
2022/07/03 13:35:29;;;;;;;1.10;0.90;;;;;;;;;;5110694;28;20481;-72
2022/07/03 13:37:55;;;;;;;1.90;1.13;;;;;;;;;;5110021;28;20036;-72
2022/07/03 13:40:22;;;;;;;7.15;1.42;;;;;;;;;;5104268;28;20135;-71
2022/07/03 13:42:48;;;;;;;6.03;1.48;;;;;;;;;;5107785;28;20067;-72
2022/07/03 13:45:14;;;;;;;2.40;1.10;;;;;;;;;;5101936;28;20108;-70
2022/07/03 13:47:40;;;;;;;2.95;1.25;;;;;;;;;;5108464;28;20039;-71
2022/07/03 13:50:06;;;;;;;4.70;2.00;;;;;;;;;;5105661;28;20042;-70
2022/07/03 13:52:32;;;;;;;1.85;1.08;;;;;;;;;;5107453;28;20104;-71
2022/07/03 13:54:59;;;;;;;3.97;1.30;;;;;;;;;;5102318;28;20044;-71
2022/07/03 13:57:25;;;;;;;5.00;1.67;;;;;;;;;;5106730;28;20088;-71
2022/07/03 13:59:51;;;;;;;5.53;2.05;;;;;;;;;;5098388;28;20580;-70
2022/07/03 14:02:17;;;;;;;4.70;1.70;;;;;;;;;;5104758;28;20527;-70
2022/07/03 14:04:43;;;;;;;5.85;2.05;;;;;;;;;;5094493;28;20036;-71
2022/07/03 14:07:09;;;;;;;2.88;1.48;;;;;;;;;;5094656;28;20040;-70
2022/07/03 14:09:35;;;;;;;3.08;1.38;;;;;;;;;;5102374;28;20421;-70
2022/07/03 14:12:02;;;;;;;3.30;1.25;;;;;;;;;;5095148;28;20051;-70
2022/07/03 14:14:28;;;;;;;5.30;1.30;;;;;;;;;;5096935;28;20095;-72
2022/07/03 14:16:54;;;;;;;4.18;1.95;;;;;;;;;;5094923;28;20151;-70
2022/07/03 14:19:20;;;;;;;3.95;1.63;;;;;;;;;;5097002;28;20043;-71
2022/07/03 14:21:46;;;;;;;4.03;1.60;;;;;;;;;;5099859;28;20044;-71
2022/07/03 14:24:12;;;;;;;1.88;1.40;;;;;;;;;;5097503;28;20407;-71
2022/07/03 14:34:53;;;;;;;3.08;1.67;;;;;;;;;;5087992;28;20101;-72
2022/07/03 14:37:19;;;;;;;3.83;1.70;;;;;;;;;;5097754;28;20043;-72
2022/07/03 14:39:46;;;;;;;3.20;1.77;;;;;;;;;;5095304;28;20044;-71
2022/07/03 14:42:12;;;;;;;2.15;1.30;;;;;;;;;;5104253;28;20032;-72
2022/07/03 14:44:38;;;;;;;4.20;1.80;;;;;;;;;;5093508;28;20339;-71
2022/07/03 14:47:04;;;;;;;3.15;1.42;;;;;;;;;;5090474;28;20040;-71
2022/07/03 14:49:31;;;;;;;2.05;1.48;;;;;;;;;;5092671;28;20039;-73
2022/07/03 14:52:01;;;;;;;2.58;1.33;;;;;;;;;;5102940;28;20043;-72
2022/07/03 14:54:27;;;;;;;2.17;1.42;;;;;;;;;;5105151;28;20040;-72
2022/07/03 14:56:54;;;;;;;2.20;1.30;;;;;;;;;;5101312;28;20408;-72
2022/07/03 14:59:29;;;;;;;2.63;1.50;;;;;;;;;;5103618;28;20071;-72
2022/07/03 15:01:57;;;;;;;5.15;1.60;;;;;;;;;;5101197;28;20485;-72
2022/07/03 15:04:35;;;;;;;1.98;1.30;;;;;;;;;;5101711;28;20044;-72
2022/07/03 15:07:01;;;;;;;2.28;1.65;;;;;;;;;;5100100;28;20381;-72
2022/07/03 15:09:29;;;;;;;2.35;1.67;;;;;;;;;;5102907;28;20173;-72
2022/07/03 15:14:43;;;;;;;5.97;2.00;;;;;;;;;;5103492;28;20040;-71